Time;durP1;ratioP1;P1;durP2;ratioP2;P2;SDS_P1;SDS_P2;PMS_P1;PMS_P2;Temp;Humidity;BMP_temperature;BMP_pressure;BME280_temperature;BME280_humidity;BME280_pressure;Samples;Min_cycle;Max_cycle;Signal;HPM_P1;HPM_P2
2022/07/28 00:00:16;;;;;;;3.67;3.20;;;;;;;15.76;100.00;95763.16;1021883;29;20055;-69
2022/07/28 00:00:46;;;;;;;4.13;3.75;;;;;;;15.82;100.00;95776.28;1018413;29;20139;-70
2022/07/28 00:01:16;;;;;;;5.03;3.80;;;;;;;15.81;100.00;95769.41;1020982;29;20424;-68
2022/07/28 00:01:47;;;;;;;4.72;3.80;;;;;;;15.79;100.00;95775.81;1022463;28;20091;-70
2022/07/28 00:02:17;;;;;;;6.40;3.65;;;;;;;15.79;100.00;95767.88;1022569;28;20027;-69
2022/07/28 00:02:48;;;;;;;5.50;3.50;;;;;;;15.79;100.00;95773.16;1022344;28;20027;-69
2022/07/28 00:03:21;;;;;;;5.65;3.72;;;;;;;15.78;100.00;95765.50;1022920;28;20078;-70
2022/07/28 00:03:52;;;;;;;6.93;4.05;;;;;;;15.76;100.00;95772.94;1022358;28;20493;-70
2022/07/28 00:04:22;;;;;;;6.75;4.10;;;;;;;15.76;100.00;95763.16;1022596;28;20100;-68
2022/07/28 00:04:53;;;;;;;5.05;3.35;;;;;;;15.76;100.00;95773.75;1026464;28;20468;-70
2022/07/28 00:05:23;;;;;;;4.10;3.65;;;;;;;15.76;100.00;95768.44;1023670;28;20031;-71
2022/07/28 00:05:54;;;;;;;5.07;3.47;;;;;;;15.76;100.00;95768.44;1022451;28;20476;-70
2022/07/28 00:06:27;;;;;;;4.60;3.40;;;;;;;15.71;100.00;95759.81;1022206;28;20805;-70
2022/07/28 00:06:57;;;;;;;5.78;3.45;;;;;;;15.74;100.00;95760.00;1022428;29;20102;-68
2022/07/28 00:07:28;;;;;;;8.10;3.78;;;;;;;15.73;100.00;95762.97;1026913;28;20031;-71
2022/07/28 00:07:58;;;;;;;4.43;4.03;;;;;;;15.74;100.00;95769.81;1030259;28;20022;-68
2022/07/28 00:08:29;;;;;;;4.95;3.95;;;;;;;15.72;100.00;95767.44;1026339;28;20620;-70
2022/07/28 00:08:59;;;;;;;6.45;3.90;;;;;;;15.70;100.00;95764.34;1026338;28;20058;-69
2022/07/28 00:09:30;;;;;;;4.97;4.05;;;;;;;15.70;100.00;95764.34;1022431;28;20114;-69
2022/07/28 00:10:00;;;;;;;7.50;3.90;;;;;;;15.70;100.00;95766.97;1022650;28;20046;-69
2022/07/28 00:10:31;;;;;;;5.70;3.90;;;;;;;15.64;100.00;95756.75;1028187;28;20049;-69
2022/07/28 00:11:02;;;;;;;5.43;3.72;;;;;;;15.63;100.00;95755.97;1034509;28;20022;-69
2022/07/28 00:11:32;;;;;;;4.45;3.85;;;;;;;15.67;100.00;95770.22;1025470;28;20579;-70
2022/07/28 00:12:03;;;;;;;5.53;3.83;;;;;;;15.68;100.00;95766.47;1022459;29;20065;-69
2022/07/28 00:12:33;;;;;;;5.18;3.80;;;;;;;15.64;100.00;95759.41;1022330;29;20114;-69
2022/07/28 00:13:04;;;;;;;6.05;4.00;;;;;;;15.67;100.00;95770.22;1023878;28;20037;-69
2022/07/28 00:13:34;;;;;;;4.70;3.47;;;;;;;15.67;100.00;95766.78;1022349;29;20023;-70
2022/07/28 00:14:05;;;;;;;4.22;3.83;;;;;;;15.64;100.00;95754.88;1016306;28;20023;-70
2022/07/28 00:14:36;;;;;;;8.20;4.18;;;;;;;15.60;100.00;95759.22;1019381;28;20055;-69
2022/07/28 00:15:06;;;;;;;6.85;4.10;;;;;;;15.63;100.00;95763.91;1018364;29;20211;-69
2022/07/28 00:15:37;;;;;;;5.07;3.70;;;;;;;15.65;100.00;95761.75;1018449;29;20028;-69
2022/07/28 00:16:07;;;;;;;4.10;3.78;;;;;;;15.63;100.00;95769.19;1018756;28;20055;-69
2022/07/28 00:16:38;;;;;;;4.47;3.90;;;;;;;15.64;100.00;95764.69;1020091;28;20027;-69
2022/07/28 00:17:08;;;;;;;4.15;3.72;;;;;;;15.64;100.00;95769.97;1027688;28;20014;-70
2022/07/28 00:17:39;;;;;;;4.78;3.70;;;;;;;15.63;100.00;95769.19;1022292;29;20034;-68
2022/07/28 00:18:09;;;;;;;3.80;3.50;;;;;;;15.63;100.00;95761.25;1016854;29;20028;-69
2022/07/28 00:18:40;;;;;;;7.10;4.00;;;;;;;15.57;100.00;95757.16;1018437;29;20064;-70
2022/07/28 00:19:10;;;;;;;4.75;4.18;;;;;;;15.60;100.00;95769.78;1022295;29;20424;-69
2022/07/28 00:19:41;;;;;;;5.80;3.83;;;;;;;15.59;100.00;95764.78;1018582;29;20028;-70
2022/07/28 00:20:11;;;;;;;4.35;3.53;;;;;;;15.53;100.00;95758.81;1018375;29;20078;-71
2022/07/28 00:20:41;;;;;;;4.20;3.80;;;;;;;15.55;100.00;95757.41;1018669;29;20028;-69
2022/07/28 00:21:12;;;;;;;6.95;3.63;;;;;;;15.55;100.00;95761.94;1025811;28;20732;-69
2022/07/28 00:21:42;;;;;;;5.60;4.03;;;;;;;15.54;100.00;95755.09;1031228;28;20038;-71
2022/07/28 00:22:13;;;;;;;4.55;3.83;;;;;;;15.53;100.00;95764.88;1031084;28;20084;-69
2022/07/28 00:22:44;;;;;;;3.45;3.15;;;;;;;15.49;100.00;95760.44;1031288;28;20610;-69
2022/07/28 00:23:14;;;;;;;6.55;3.83;;;;;;;15.53;100.00;95766.75;1026991;28;20077;-70
2022/07/28 00:23:45;;;;;;;4.65;3.95;;;;;;;15.49;100.00;95760.44;1023411;28;20070;-71
2022/07/28 00:24:15;;;;;;;4.45;3.90;;;;;;;15.52;100.00;95759.88;1023276;28;20587;-68
2022/07/28 00:24:46;;;;;;;5.35;3.83;;;;;;;15.47;100.00;95760.75;1023276;28;20043;-69
2022/07/28 00:25:16;;;;;;;4.20;3.80;;;;;;;15.50;100.00;95764.69;1022929;28;20027;-69
2022/07/28 00:25:47;;;;;;;6.13;3.50;;;;;;;15.50;100.00;95764.69;1019518;29;20393;-71
2022/07/28 00:26:17;;;;;;;5.40;3.83;;;;;;;15.49;100.00;95765.75;1023373;28;20589;-69
2022/07/28 00:26:47;;;;;;;6.03;3.80;;;;;;;15.42;100.00;95752.91;1025871;28;20030;-69
2022/07/28 00:27:18;;;;;;;5.95;3.75;;;;;;;15.48;100.00;95766.81;1030657;28;20031;-68
2022/07/28 00:27:48;;;;;;;4.68;3.78;;;;;;;15.43;100.00;95753.72;1027173;28;20055;-68
2022/07/28 00:28:19;;;;;;;4.75;3.85;;;;;;;15.46;100.00;95764.50;1027283;28;20023;-70
2022/07/28 00:28:49;;;;;;;4.82;3.75;;;;;;;15.43;100.00;95764.28;1027177;28;20089;-69
2022/07/28 00:29:20;;;;;;;4.57;4.03;;;;;;;15.44;100.00;95760.56;1023086;28;20067;-69
2022/07/28 00:29:50;;;;;;;4.70;3.35;;;;;;;15.43;100.00;95759.00;1023408;28;20067;-69
2022/07/28 00:30:23;;;;;;;5.47;3.58;;;;;;;15.43;100.00;95759.00;1023268;28;20027;-69
2022/07/28 00:30:54;;;;;;;5.35;4.25;;;;;;;15.43;100.00;95766.94;1023693;28;20023;-69
2022/07/28 00:31:24;;;;;;;4.68;3.63;;;;;;;15.44;100.00;95760.56;1026462;28;20031;-69
2022/07/28 00:31:55;;;;;;;6.00;3.90;;;;;;;15.43;100.00;95756.34;1028361;28;20046;-69
2022/07/28 00:32:25;;;;;;;4.30;3.88;;;;;;;15.42;100.00;95758.19;1031054;28;20102;-69
2022/07/28 00:32:56;;;;;;;10.10;4.65;;;;;;;15.41;100.00;95759.28;1031161;28;20023;-70
2022/07/28 00:33:26;;;;;;;4.85;4.00;;;;;;;15.40;100.00;95754.28;1031161;28;20030;-70
2022/07/28 00:33:57;;;;;;;4.28;3.83;;;;;;;15.35;100.00;95749.09;1031061;28;20025;-70
2022/07/28 00:34:27;;;;;;;5.10;4.10;;;;;;;15.40;100.00;95754.28;1031162;28;20023;-68
2022/07/28 00:34:58;;;;;;;4.65;3.90;;;;;;;15.37;100.00;95754.88;1027166;28;20547;-69
2022/07/28 00:35:28;;;;;;;5.78;3.60;;;;;;;15.40;100.00;95759.59;1019239;29;20078;-69
2022/07/28 00:35:59;;;;;;;4.97;4.22;;;;;;;15.38;100.00;95756.44;1019106;29;20058;-69
2022/07/28 00:36:29;;;;;;;5.30;4.05;;;;;;;15.36;100.00;95754.09;1023309;28;20080;-71
2022/07/28 00:37:02;;;;;;;5.10;3.90;;;;;;;15.30;100.00;95744.69;1023043;29;20035;-70
2022/07/28 00:37:33;;;;;;;4.30;3.90;;;;;;;15.36;100.00;95753.28;1015669;29;20024;-70
2022/07/28 00:38:03;;;;;;;5.63;3.90;;;;;;;15.33;100.00;95747.53;1021251;28;20027;-69
2022/07/28 00:38:34;;;;;;;5.22;3.72;;;;;;;15.35;100.00;95757.03;1019277;29;20028;-69
2022/07/28 00:39:04;;;;;;;4.63;4.10;;;;;;;15.35;100.00;95749.88;1020505;29;20109;-69
2022/07/28 00:39:35;;;;;;;5.93;4.05;;;;;;;15.32;100.00;95753.09;1023268;29;20031;-71
2022/07/28 00:40:07;;;;;;;6.15;4.22;;;;;;;15.33;100.00;95757.31;1023166;29;20019;-69
2022/07/28 00:41:26;;;;;;;7.28;4.20;;;;;;;15.30;100.00;95756.03;1030760;28;20585;-69
2022/07/28 00:41:57;;;;;;;7.95;3.90;;;;;;;15.29;100.00;95759.78;1035087;28;20025;-70
2022/07/28 00:42:27;;;;;;;5.43;4.00;;;;;;;15.26;100.00;95752.41;1031068;28;20448;-71
2022/07/28 00:42:57;;;;;;;5.40;3.58;;;;;;;15.26;100.00;95755.06;1031172;28;20026;-70
2022/07/28 00:43:28;;;;;;;4.63;4.22;;;;;;;15.22;100.00;95759.34;1031149;28;20617;-69
2022/07/28 00:43:58;;;;;;;5.57;3.85;;;;;;;15.24;100.00;95759.84;1026005;28;20723;-70
2022/07/28 00:44:29;;;;;;;3.78;3.42;;;;;;;15.22;100.00;95758.56;1022923;28;20078;-69
2022/07/28 00:45:02;;;;;;;4.38;3.80;;;;;;;15.14;100.00;95752.09;1019377;29;20542;-70
2022/07/28 00:45:33;;;;;;;5.85;4.00;;;;;;;15.19;100.00;95759.94;1023098;28;20027;-72
2022/07/28 00:46:03;;;;;;;4.70;4.00;;;;;;;15.12;100.00;95746.31;1023927;28;20046;-70
2022/07/28 00:46:34;;;;;;;7.50;4.55;;;;;;;15.18;100.00;95757.59;1031182;28;20046;-69
2022/07/28 00:47:04;;;;;;;4.25;3.78;;;;;;;15.17;100.00;95762.09;1031226;28;20594;-69
2022/07/28 00:47:35;;;;;;;4.50;3.90;;;;;;;15.17;100.00;95758.66;1033620;28;20188;-70
2022/07/28 00:48:05;;;;;;;4.60;4.20;;;;;;;15.16;100.00;95760.53;1034668;28;20539;-69
2022/07/28 00:48:39;;;;;;;8.93;4.22;;;;;;;15.15;100.00;95756.28;1027234;28;20042;-69
2022/07/28 00:49:10;;;;;;;4.97;4.03;;;;;;;15.17;100.00;95751.50;1027067;28;20018;-69
2022/07/28 00:49:40;;;;;;;4.20;3.70;;;;;;;15.15;100.00;95758.94;1027109;28;20222;-68
2022/07/28 00:50:11;;;;;;;4.70;4.30;;;;;;;15.11;100.00;95750.03;1027018;28;20101;-69
2022/07/28 00:50:41;;;;;;;6.88;3.97;;;;;;;15.13;100.00;95757.69;1023233;29;20031;-72
2022/07/28 00:51:12;;;;;;;5.55;4.30;;;;;;;15.12;100.00;95754.22;1018983;28;20664;-73
2022/07/28 00:51:42;;;;;;;4.65;4.07;;;;;;;15.14;100.00;95759.25;1023421;28;20050;-70
2022/07/28 00:52:13;;;;;;;4.75;4.00;;;;;;;15.07;100.00;95743.75;1027012;28;20085;-69
2022/07/28 00:52:43;;;;;;;5.97;3.90;;;;;;;15.13;100.00;95761.09;1023053;29;20019;-70
2022/07/28 00:53:14;;;;;;;5.93;4.30;;;;;;;15.09;100.00;95745.03;1019197;29;20023;-69
2022/07/28 00:53:44;;;;;;;4.32;3.88;;;;;;;15.07;100.00;95746.41;1023151;29;20051;-69
2022/07/28 00:54:16;;;;;;;4.07;3.58;;;;;;;15.13;100.00;95753.19;1026881;28;20070;-69
2022/07/28 00:54:46;;;;;;;12.27;4.30;;;;;;;15.12;100.00;95758.75;1027137;28;20030;-69
2022/07/28 00:55:17;;;;;;;5.05;4.18;;;;;;;15.07;100.00;95741.13;1019208;29;20470;-69
2022/07/28 00:55:47;;;;;;;4.55;3.90;;;;;;;15.09;100.00;95752.97;1019168;29;20016;-69
2022/07/28 00:56:18;;;;;;;6.72;4.95;;;;;;;15.10;100.00;95756.41;1023031;29;20544;-71
2022/07/28 00:56:49;;;;;;;7.22;4.15;;;;;;;15.08;100.00;95747.97;1019515;28;20024;-70
2022/07/28 00:57:20;;;;;;;6.07;4.28;;;;;;;15.09;100.00;95752.19;1023206;28;20034;-69
2022/07/28 00:57:51;;;;;;;12.07;4.47;;;;;;;15.09;100.00;95746.91;1026387;28;20086;-70
2022/07/28 00:58:21;;;;;;;4.53;4.05;;;;;;;15.08;100.00;95753.25;1026061;28;20019;-69
2022/07/28 00:58:52;;;;;;;5.18;4.25;;;;;;;15.07;100.00;95746.41;1031321;28;20022;-71
2022/07/28 00:59:22;;;;;;;14.57;4.22;;;;;;;15.05;100.00;95749.31;1030996;28;20027;-70
2022/07/28 00:59:53;;;;;;;7.25;4.18;;;;;;;15.03;100.00;95748.06;1031081;28;20408;-69
2022/07/28 01:00:23;;;;;;;4.82;4.20;;;;;;;15.03;100.00;95750.72;1027146;28;20023;-70
2022/07/28 01:00:54;;;;;;;9.30;4.18;;;;;;;14.97;100.00;95742.06;1026897;28;20027;-69
2022/07/28 01:01:24;;;;;;;7.30;4.65;;;;;;;15.01;100.00;95743.06;1026416;28;20095;-69
2022/07/28 01:01:55;;;;;;;4.85;4.20;;;;;;;15.01;100.00;95745.69;1027384;28;20045;-69
2022/07/28 01:02:25;;;;;;;8.90;4.05;;;;;;;15.03;100.00;95756.00;1022916;29;20552;-69
2022/07/28 01:02:56;;;;;;;10.80;4.32;;;;;;;14.94;100.00;95736.59;1015127;29;20024;-71
2022/07/28 01:03:26;;;;;;;5.00;4.32;;;;;;;15.01;100.00;95752.84;1015288;29;20082;-69
2022/07/28 01:03:59;;;;;;;4.38;4.07;;;;;;;15.00;100.00;95746.78;1019316;29;20062;-69
2022/07/28 01:04:30;;;;;;;5.53;3.90;;;;;;;15.01;100.00;95747.56;1018894;29;20785;-70
2022/07/28 01:05:00;;;;;;;4.95;4.15;;;;;;;14.98;100.00;95748.91;1011382;29;20077;-70
2022/07/28 01:05:45;;;;;;;5.30;4.22;;;;;;;14.97;100.00;95741.28;1019126;29;20035;-69
2022/07/28 01:06:31;;;;;;;5.72;4.30;;;;;;;14.95;100.00;95738.16;1025151;28;20400;-69
2022/07/28 01:07:07;;;;;;;4.88;4.38;;;;;;;14.95;100.00;95744.22;1022990;29;20656;-70
2022/07/28 01:07:45;;;;;;;5.93;4.32;;;;;;;14.92;100.00;95738.72;1023324;29;20019;-71
2022/07/28 01:08:39;;;;;;;4.95;3.90;;;;;;;14.94;100.00;95749.78;1026893;28;20023;-68
2022/07/28 01:09:38;;;;;;;5.25;4.50;;;;;;;14.84;100.00;95735.66;1019286;29;20067;-69
2022/07/28 01:10:23;;;;;;;5.20;4.15;;;;;;;14.90;100.00;95740.88;1018932;29;20031;-70
2022/07/28 01:11:13;;;;;;;5.90;4.72;;;;;;;14.89;100.00;95749.88;1022302;28;20106;-69
2022/07/28 01:12:06;;;;;;;11.13;5.55;;;;;;;14.88;100.00;95740.38;1015249;29;20382;-69
2022/07/28 01:12:48;;;;;;;5.97;4.53;;;;;;;14.84;100.00;95743.59;1018802;29;20449;-70
2022/07/28 01:13:59;;;;;;;4.93;4.40;;;;;;;14.85;100.00;95736.44;1021167;28;20848;-70
2022/07/28 01:14:43;;;;;;;4.85;4.35;;;;;;;14.82;100.00;95740.47;1025479;28;20277;-69
2022/07/28 01:15:35;;;;;;;7.68;4.90;;;;;;;14.83;100.00;95736.75;1022945;28;20050;-69
2022/07/28 01:16:05;;;;;;;4.93;4.43;;;;;;;14.80;100.00;95733.91;1023778;28;20023;-69
2022/07/28 01:16:41;;;;;;;6.65;4.55;;;;;;;14.80;100.00;95734.69;1015052;29;20043;-69
2022/07/28 01:17:27;;;;;;;9.18;4.60;;;;;;;14.74;100.00;95727.13;1022938;29;21595;-69
2022/07/28 01:18:04;;;;;;;8.30;4.82;;;;;;;14.82;100.00;95742.31;1030216;28;20026;-69
2022/07/28 01:18:46;;;;;;;5.20;4.70;;;;;;;14.80;100.00;95733.91;1023096;28;20118;-71
2022/07/28 01:19:58;;;;;;;9.80;4.78;;;;;;;14.79;100.00;95741.06;1030778;28;20026;-71
2022/07/28 01:20:36;;;;;;;5.75;4.40;;;;;;;14.73;100.00;95729.00;1033440;28;20022;-70
2022/07/28 01:21:12;;;;;;;7.88;4.40;;;;;;;14.74;100.00;95727.91;1027899;28;20072;-69
2022/07/28 01:21:42;;;;;;;6.35;4.25;;;;;;;14.77;100.00;95737.13;1026503;28;20038;-70
2022/07/28 01:22:16;;;;;;;5.28;4.78;;;;;;;14.76;100.00;95738.22;1016048;29;20034;-69
2022/07/28 01:23:12;;;;;;;4.38;3.78;;;;;;;14.75;100.00;95728.69;1018889;29;20573;-69
2022/07/28 01:24:07;;;;;;;6.05;4.63;;;;;;;14.75;100.00;95731.34;1026502;28;20030;-69
2022/07/28 01:24:50;;;;;;;11.07;5.55;;;;;;;14.70;100.00;95731.44;1033532;28;20018;-68
2022/07/28 01:25:23;;;;;;;6.00;4.32;;;;;;;14.76;100.00;95739.00;1025960;28;20027;-69
2022/07/28 01:26:12;;;;;;;5.50;4.95;;;;;;;14.74;100.00;95733.19;1022958;29;20031;-68
2022/07/28 01:27:06;;;;;;;9.88;4.53;;;;;;;14.74;100.00;95741.13;1017740;29;20506;-70
2022/07/28 01:27:44;;;;;;;7.00;4.00;;;;;;;14.76;100.00;95735.56;1028891;28;20026;-68
2022/07/28 01:28:49;;;;;;;5.03;4.50;;;;;;;14.73;100.00;95742.19;1019578;29;20082;-70
2022/07/28 01:29:47;;;;;;;6.20;5.20;;;;;;;14.73;100.00;95734.28;1018591;29;20071;-69
2022/07/28 01:30:47;;;;;;;5.85;4.35;;;;;;;14.73;100.00;95730.84;1027295;28;20825;-69
2022/07/28 01:31:20;;;;;;;5.50;4.88;;;;;;;14.67;100.00;95727.50;1029143;28;20046;-69
2022/07/28 01:31:55;;;;;;;6.97;4.95;;;;;;;14.71;100.00;95731.13;1026838;28;20033;-69
2022/07/28 01:32:27;;;;;;;6.40;4.88;;;;;;;14.69;100.00;95730.66;1018784;28;20035;-68
2022/07/28 01:33:15;;;;;;;7.05;4.78;;;;;;;14.71;100.00;95733.78;1022911;29;20030;-69
2022/07/28 01:33:51;;;;;;;7.18;4.80;;;;;;;14.72;100.00;95729.25;1027081;28;20015;-69
2022/07/28 01:34:33;;;;;;;9.82;4.82;;;;;;;14.69;100.00;95730.66;1030443;28;20030;-70
2022/07/28 01:35:32;;;;;;;7.35;5.05;;;;;;;14.68;100.00;95731.69;1027104;28;20100;-69
2022/07/28 01:36:07;;;;;;;5.47;4.70;;;;;;;14.68;100.00;95730.94;1026867;28;20097;-69
2022/07/28 01:36:44;;;;;;;7.60;4.78;;;;;;;14.67;100.00;95724.84;1023135;28;20031;-69
2022/07/28 01:37:17;;;;;;;6.35;4.80;;;;;;;14.67;100.00;95727.50;1028889;28;20055;-71
2022/07/28 01:37:50;;;;;;;6.22;4.80;;;;;;;14.68;100.00;95725.63;1024651;29;20038;-69
2022/07/28 01:38:21;;;;;;;8.00;5.40;;;;;;;14.65;100.00;95715.66;1022279;28;20030;-71
2022/07/28 01:38:52;;;;;;;7.00;4.80;;;;;;;14.66;100.00;95725.16;1018904;29;20028;-70
2022/07/28 01:39:24;;;;;;;7.88;4.82;;;;;;;14.68;100.00;95726.41;1020133;29;20055;-69
2022/07/28 01:39:59;;;;;;;6.97;5.07;;;;;;;14.59;100.00;95707.03;1020759;29;20100;-70
2022/07/28 01:40:32;;;;;;;7.53;5.00;;;;;;;14.66;100.00;95725.16;1021045;28;20036;-69
2022/07/28 01:41:03;;;;;;;5.47;4.97;;;;;;;14.68;100.00;95717.72;1015865;29;20084;-72
2022/07/28 01:41:33;;;;;;;6.53;4.65;;;;;;;14.63;100.00;95713.31;1020062;29;20039;-70
2022/07/28 01:42:05;;;;;;;6.40;5.18;;;;;;;14.59;100.00;95709.69;1023147;29;20023;-70
2022/07/28 01:42:41;;;;;;;6.00;4.35;;;;;;;14.64;100.00;95709.59;1022290;29;20038;-70
2022/07/28 01:43:16;;;;;;;6.05;5.05;;;;;;;14.61;100.00;95707.53;1027038;28;20033;-69
2022/07/28 01:43:50;;;;;;;6.57;5.00;;;;;;;14.68;100.00;95715.84;1011217;29;20115;-69
2022/07/28 01:44:22;;;;;;;6.25;4.70;;;;;;;14.67;100.00;95710.88;1018731;29;20035;-69
2022/07/28 01:44:53;;;;;;;7.80;5.07;;;;;;;14.66;100.00;95707.47;1023133;29;20034;-71
2022/07/28 01:45:26;;;;;;;8.65;4.55;;;;;;;14.59;100.00;95707.81;1022865;29;20023;-69
2022/07/28 01:45:57;;;;;;;6.93;4.93;;;;;;;14.53;100.00;95701.06;1018185;29;20666;-71
2022/07/28 01:46:27;;;;;;;5.13;4.63;;;;;;;14.60;100.00;95712.03;1019295;29;20101;-69
2022/07/28 01:46:57;;;;;;;5.72;4.75;;;;;;;14.61;100.00;95710.16;1018966;29;20062;-70
2022/07/28 01:47:31;;;;;;;8.35;5.45;;;;;;;14.63;100.00;95713.31;1018956;29;20035;-68
2022/07/28 01:48:01;;;;;;;5.57;4.95;;;;;;;14.60;100.00;95717.31;1019435;29;20058;-72
2022/07/28 01:48:32;;;;;;;5.13;4.63;;;;;;;14.60;100.00;95716.53;1023227;28;20027;-69
2022/07/28 01:49:03;;;;;;;6.50;5.20;;;;;;;14.60;100.00;95716.53;1022794;28;20011;-68
2022/07/28 01:49:34;;;;;;;5.78;5.03;;;;;;;14.57;100.00;95711.81;1019322;29;20027;-68
2022/07/28 01:50:07;;;;;;;9.25;5.10;;;;;;;14.59;100.00;95720.25;1015448;29;20518;-70
2022/07/28 01:50:38;;;;;;;6.00;5.22;;;;;;;14.57;100.00;95711.81;1019408;29;20063;-69
2022/07/28 01:51:09;;;;;;;9.20;5.07;;;;;;;14.54;100.00;95712.38;1026302;28;20548;-69
2022/07/28 01:51:39;;;;;;;6.45;5.55;;;;;;;14.55;100.00;95709.47;1022876;29;20096;-69
2022/07/28 01:52:10;;;;;;;8.25;4.88;;;;;;;14.56;100.00;95715.53;1018837;29;20088;-69
2022/07/28 01:52:40;;;;;;;5.65;4.97;;;;;;;14.53;100.00;95708.19;1016199;29;20036;-68
2022/07/28 01:53:12;;;;;;;5.63;5.13;;;;;;;14.49;100.00;95710.59;1018936;29;20023;-69
2022/07/28 01:53:43;;;;;;;6.10;5.40;;;;;;;14.35;100.00;95681.50;1018957;29;20062;-68
2022/07/28 01:54:14;;;;;;;8.38;4.82;;;;;;;14.56;100.00;95718.19;1022858;29;20045;-68
2022/07/28 01:54:44;;;;;;;6.03;4.75;;;;;;;14.56;100.00;95710.25;1022486;29;20027;-69
2022/07/28 01:55:16;;;;;;;6.25;5.10;;;;;;;14.54;100.00;95709.75;1022786;29;20023;-70
2022/07/28 01:55:46;;;;;;;8.00;5.38;;;;;;;14.56;100.00;95712.91;1022817;28;20031;-69
2022/07/28 01:56:17;;;;;;;7.53;5.40;;;;;;;14.57;100.00;95714.47;1022887;29;20039;-69
2022/07/28 01:56:48;;;;;;;7.15;5.25;;;;;;;14.50;100.00;95703.44;1018991;29;20059;-69
2022/07/28 01:57:18;;;;;;;5.43;4.80;;;;;;;14.51;100.00;95708.47;1018905;29;20931;-68
2022/07/28 01:57:49;;;;;;;10.07;5.40;;;;;;;14.46;100.00;95694.53;1021794;28;20031;-68
2022/07/28 01:58:21;;;;;;;6.28;5.00;;;;;;;14.52;100.00;95706.59;1022978;29;20023;-70
2022/07/28 01:58:51;;;;;;;5.90;4.85;;;;;;;14.56;100.00;95710.25;1022557;29;20031;-68
2022/07/28 01:59:22;;;;;;;6.18;4.95;;;;;;;14.57;100.00;95711.81;1020595;28;20045;-70
2022/07/28 01:59:53;;;;;;;7.47;4.85;;;;;;;14.53;100.00;95706.34;1019023;29;20123;-70
2022/07/28 02:00:23;;;;;;;8.55;5.10;;;;;;;14.48;100.00;95698.44;1018987;29;20136;-68
2022/07/28 02:00:54;;;;;;;8.10;5.05;;;;;;;14.51;100.00;95705.81;1022745;28;20472;-71
2022/07/28 02:01:24;;;;;;;7.50;5.35;;;;;;;14.54;100.00;95712.38;1022118;28;20027;-69
2022/07/28 02:01:55;;;;;;;6.57;5.68;;;;;;;14.52;100.00;95709.25;1018870;29;20031;-69
2022/07/28 02:02:26;;;;;;;7.60;5.20;;;;;;;14.44;100.00;95696.69;1022912;29;20509;-68
2022/07/28 02:02:57;;;;;;;8.25;5.63;;;;;;;14.48;100.00;95703.72;1026780;28;20051;-68
2022/07/28 02:03:28;;;;;;;6.90;5.47;;;;;;;14.42;100.00;95698.81;1022798;29;20047;-69
2022/07/28 02:03:58;;;;;;;10.13;5.10;;;;;;;14.46;100.00;95705.88;1019087;29;20035;-68
2022/07/28 02:04:29;;;;;;;7.80;5.90;;;;;;;14.44;100.00;95707.25;1022591;28;20397;-69
2022/07/28 02:04:59;;;;;;;7.60;5.15;;;;;;;14.43;100.00;95705.69;1018902;29;20123;-70
2022/07/28 02:05:30;;;;;;;6.65;5.45;;;;;;;14.48;100.00;95710.88;1018641;29;20024;-68
2022/07/28 02:06:01;;;;;;;6.65;5.63;;;;;;;14.48;100.00;95706.38;1022762;28;20416;-69
2022/07/28 02:06:32;;;;;;;8.57;5.35;;;;;;;14.48;100.00;95703.72;1022869;29;20110;-69
2022/07/28 02:07:02;;;;;;;7.90;5.15;;;;;;;14.49;100.00;95709.81;1018890;29;20486;-70
2022/07/28 02:07:33;;;;;;;7.22;5.43;;;;;;;14.48;100.00;95713.50;1022793;28;20094;-68
2022/07/28 02:08:04;;;;;;;7.70;5.60;;;;;;;14.43;100.00;95703.81;1022659;28;20018;-69
2022/07/28 02:08:35;;;;;;;7.90;5.43;;;;;;;14.47;100.00;95707.44;1018901;29;20038;-70
2022/07/28 02:09:05;;;;;;;6.47;5.20;;;;;;;14.43;100.00;95708.31;1018835;29;20027;-69
2022/07/28 02:09:36;;;;;;;7.57;5.68;;;;;;;14.39;100.00;95695.69;1022456;28;20082;-68
2022/07/28 02:10:07;;;;;;;7.38;5.57;;;;;;;14.40;100.00;95701.75;1015018;29;20625;-68
2022/07/28 02:10:40;;;;;;;5.57;5.00;;;;;;;14.39;100.00;95695.69;1018978;29;20024;-69
2022/07/28 02:11:59;;;;;;;10.30;5.53;;;;;;;14.42;100.00;95704.09;1022826;29;20430;-69
2022/07/28 02:12:30;;;;;;;9.20;5.97;;;;;;;14.37;100.00;95697.81;1026954;28;20061;-69
2022/07/28 02:13:00;;;;;;;7.57;5.32;;;;;;;14.41;100.00;95705.16;1026656;28;20023;-69
2022/07/28 02:13:32;;;;;;;6.78;5.28;;;;;;;14.33;100.00;95696.84;1014961;29;20020;-68
2022/07/28 02:14:02;;;;;;;6.65;5.35;;;;;;;14.35;100.00;95702.63;1020565;29;20035;-70
2022/07/28 02:14:35;;;;;;;6.05;5.30;;;;;;;14.35;100.00;95697.34;1030654;28;20022;-69
2022/07/28 02:15:07;;;;;;;8.20;5.43;;;;;;;14.33;100.00;95696.06;1026812;28;20543;-69
2022/07/28 02:15:37;;;;;;;7.75;5.40;;;;;;;14.25;100.00;95694.84;1014889;29;20091;-69
2022/07/28 02:16:09;;;;;;;8.75;5.80;;;;;;;14.15;100.00;95679.13;1015160;29;20103;-68
2022/07/28 02:16:47;;;;;;;7.75;5.45;;;;;;;14.29;100.00;95697.69;1014754;29;20021;-70
2022/07/28 02:17:19;;;;;;;7.13;5.43;;;;;;;14.31;100.00;95698.97;1023080;29;20062;-69
2022/07/28 02:17:50;;;;;;;6.65;5.53;;;;;;;14.25;100.00;95697.50;1026553;28;20027;-69
2022/07/28 02:18:21;;;;;;;8.23;5.38;;;;;;;14.25;100.00;95697.50;1026478;28;20070;-68
2022/07/28 02:18:52;;;;;;;9.63;6.35;;;;;;;14.28;100.00;95696.91;1023017;29;20031;-69
2022/07/28 02:19:26;;;;;;;8.00;5.53;;;;;;;14.30;100.00;95702.69;1014606;29;20035;-68
2022/07/28 02:19:56;;;;;;;7.95;5.93;;;;;;;14.27;100.00;95697.97;1026683;28;20026;-69
2022/07/28 02:20:27;;;;;;;6.70;5.63;;;;;;;14.28;100.00;95699.53;1022842;28;20019;-69
2022/07/28 02:20:58;;;;;;;8.60;5.53;;;;;;;14.27;100.00;95702.47;1026860;28;20053;-70
2022/07/28 02:21:29;;;;;;;7.53;5.82;;;;;;;14.28;100.00;95699.53;1014111;29;20051;-68
2022/07/28 02:22:00;;;;;;;9.27;5.60;;;;;;;14.31;100.00;95704.25;1022461;28;20083;-68
2022/07/28 02:22:31;;;;;;;10.20;5.90;;;;;;;14.30;100.00;95704.53;1018877;29;20027;-69
2022/07/28 02:23:01;;;;;;;8.30;5.60;;;;;;;14.22;100.00;95690.16;1015110;29;20024;-69
2022/07/28 02:23:32;;;;;;;8.68;5.38;;;;;;;14.25;100.00;95694.84;1015667;29;20020;-68
2022/07/28 02:24:03;;;;;;;6.32;5.43;;;;;;;14.28;100.00;95699.53;1014955;29;20043;-71
2022/07/28 02:24:33;;;;;;;6.57;5.88;;;;;;;14.29;100.00;95701.13;1018997;29;20054;-67
2022/07/28 02:25:04;;;;;;;5.60;5.10;;;;;;;14.28;100.00;95707.44;1022888;29;20043;-70
2022/07/28 02:25:35;;;;;;;6.70;5.97;;;;;;;14.25;100.00;95700.13;1023022;28;20029;-71
2022/07/28 02:26:07;;;;;;;5.95;5.35;;;;;;;14.22;100.00;95689.34;1026717;28;20015;-69
2022/07/28 02:26:41;;;;;;;8.65;5.93;;;;;;;14.26;100.00;95696.41;1022033;29;20019;-67
2022/07/28 02:27:20;;;;;;;7.57;5.95;;;;;;;14.19;100.00;95689.94;1017412;29;20612;-68
2022/07/28 02:27:58;;;;;;;9.20;6.10;;;;;;;14.25;100.00;95694.84;1014838;29;20124;-68
2022/07/28 02:28:28;;;;;;;9.88;6.18;;;;;;;14.21;100.00;95704.38;1022645;28;20504;-69
2022/07/28 02:28:59;;;;;;;6.65;6.00;;;;;;;14.23;100.00;95696.97;1022781;28;20015;-72
2022/07/28 02:29:31;;;;;;;8.85;5.97;;;;;;;14.21;100.00;95699.13;1014481;29;20766;-69
2022/07/28 02:30:07;;;;;;;7.47;6.38;;;;;;;14.17;100.00;95692.84;1026973;28;20058;-69
2022/07/28 02:31:08;;;;;;;6.47;5.85;;;;;;;14.18;100.00;95704.97;1017866;29;20592;-68
2022/07/28 02:31:49;;;;;;;10.43;6.05;;;;;;;14.19;100.00;95709.19;1023132;29;20424;-69
2022/07/28 02:32:23;;;;;;;7.40;5.72;;;;;;;14.11;100.00;95696.63;1021796;28;20024;-69
2022/07/28 02:33:10;;;;;;;6.78;5.65;;;;;;;14.10;100.00;95695.06;1023222;29;20019;-68
2022/07/28 02:33:40;;;;;;;7.78;5.55;;;;;;;14.16;100.00;95709.75;1023253;29;20031;-68
2022/07/28 02:34:11;;;;;;;13.27;6.47;;;;;;;14.13;100.00;95699.78;1023148;28;20015;-71
2022/07/28 02:34:42;;;;;;;9.85;6.80;;;;;;;14.12;100.00;95706.13;1023166;29;20023;-69
2022/07/28 02:35:30;;;;;;;7.93;6.20;;;;;;;14.11;100.00;95709.81;1015463;29;20142;-69
2022/07/28 02:36:14;;;;;;;7.55;5.53;;;;;;;14.09;100.00;95711.97;1019208;29;20030;-69
2022/07/28 02:36:48;;;;;;;9.40;6.03;;;;;;;14.07;100.00;95704.31;1015374;28;20031;-69
2022/07/28 02:37:18;;;;;;;7.07;5.90;;;;;;;14.04;100.00;95704.13;1021128;28;20067;-68